Time;durP1;ratioP1;P1;durP2;ratioP2;P2;SDS_P1;SDS_P2;PMS_P1;PMS_P2;Temp;Humidity;BMP_temperature;BMP_pressure;BME280_temperature;BME280_humidity;BME280_pressure;Samples;Min_cycle;Max_cycle;Signal;HPM_P1;HPM_P2
2022/08/04 00:01:08;;;;;;;7.53;3.42;;;;;;;;;;5015146;28;20060;-45
2022/08/04 00:03:52;;;;;;;8.77;3.30;;;;;;;;;;5015196;28;20054;-45
2022/08/04 00:06:23;;;;;;;6.22;2.92;;;;;;;;;;5030670;28;20049;-45
2022/08/04 00:08:55;;;;;;;7.93;3.17;;;;;;;;;;5034639;28;20366;-43
2022/08/04 00:11:23;;;;;;;5.80;2.67;;;;;;;;;;5034626;28;20504;-44
2022/08/04 00:13:56;;;;;;;6.55;3.25;;;;;;;;;;5038356;28;20053;-44
2022/08/04 00:16:29;;;;;;;9.77;2.97;;;;;;;;;;5054648;28;20048;-45
2022/08/04 00:18:59;;;;;;;5.93;3.40;;;;;;;;;;5054713;28;20107;-44
2022/08/04 00:21:35;;;;;;;7.20;3.47;;;;;;;;;;5054883;28;20041;-44
2022/08/04 00:24:03;;;;;;;5.15;2.72;;;;;;;;;;5046370;28;20058;-44
2022/08/04 00:26:32;;;;;;;8.30;3.38;;;;;;;;;;5014619;28;20473;-44
2022/08/04 00:29:08;;;;;;;8.18;2.65;;;;;;;;;;5014819;28;20144;-45
2022/08/04 00:31:44;;;;;;;6.45;3.00;;;;;;;;;;5017780;28;20054;-46
2022/08/04 00:34:14;;;;;;;4.82;2.90;;;;;;;;;;5054320;28;20048;-46
2022/08/04 00:36:43;;;;;;;7.90;2.95;;;;;;;;;;5054281;28;20049;-45
2022/08/04 00:39:12;;;;;;;7.72;3.05;;;;;;;;;;5053687;28;20056;-45
2022/08/04 00:41:46;;;;;;;5.22;3.08;;;;;;;;;;5054337;28;20041;-44
2022/08/04 00:44:17;;;;;;;4.82;2.38;;;;;;;;;;5049579;28;20734;-46
2022/08/04 00:47:03;;;;;;;8.63;2.53;;;;;;;;;;5033268;28;20072;-44
2022/08/04 00:49:55;;;;;;;8.48;3.47;;;;;;;;;;5033475;28;20061;-44
2022/08/04 00:52:31;;;;;;;5.78;3.28;;;;;;;;;;5022012;28;20053;-45
2022/08/04 00:55:18;;;;;;;6.07;3.30;;;;;;;;;;5034289;28;20049;-46
2022/08/04 00:57:57;;;;;;;5.72;2.97;;;;;;;;;;5034060;28;20045;-44
2022/08/04 01:00:24;;;;;;;8.48;3.40;;;;;;;;;;5033702;28;20119;-47
2022/08/04 01:03:00;;;;;;;5.95;3.00;;;;;;;;;;5033799;28;20046;-46
2022/08/04 01:05:37;;;;;;;6.18;3.05;;;;;;;;;;5033597;28;20054;-44
2022/08/04 01:08:25;;;;;;;5.28;2.67;;;;;;;;;;5033920;28;20057;-44
2022/08/04 01:11:04;;;;;;;4.00;2.80;;;;;;;;;;5033827;28;20049;-44
2022/08/04 01:13:40;;;;;;;7.40;3.20;;;;;;;;;;5034718;28;20120;-44
2022/08/04 01:16:10;;;;;;;4.28;3.20;;;;;;;;;;5053423;28;20103;-47
2022/08/04 01:18:52;;;;;;;6.97;3.03;;;;;;;;;;5052422;28;20512;-44
2022/08/04 01:21:46;;;;;;;6.47;3.58;;;;;;;;;;5053377;28;20362;-45
2022/08/04 01:24:31;;;;;;;4.20;2.97;;;;;;;;;;5017406;28;20056;-46
2022/08/04 01:27:11;;;;;;;4.88;3.53;;;;;;;;;;5014051;28;20081;-45
2022/08/04 01:29:48;;;;;;;8.35;3.45;;;;;;;;;;5014193;28;20050;-44
2022/08/04 01:32:21;;;;;;;8.93;3.17;;;;;;;;;;5028018;28;20049;-44
2022/08/04 01:34:55;;;;;;;7.88;3.72;;;;;;;;;;5053589;28;20055;-43
2022/08/04 01:37:30;;;;;;;7.37;3.60;;;;;;;;;;5053093;28;20717;-45
2022/08/04 01:40:00;;;;;;;8.45;3.38;;;;;;;;;;5052706;28;20057;-45
2022/08/04 01:42:37;;;;;;;5.38;3.15;;;;;;;;;;5049910;28;20057;-44
2022/08/04 01:45:08;;;;;;;5.15;2.90;;;;;;;;;;5031732;28;20111;-43
2022/08/04 01:47:39;;;;;;;5.10;2.92;;;;;;;;;;5013264;28;20053;-46
2022/08/04 01:50:16;;;;;;;12.93;4.47;;;;;;;;;;5013757;28;20049;-48
2022/08/04 01:52:43;;;;;;;7.13;3.50;;;;;;;;;;5017310;28;20185;-44
2022/08/04 01:55:12;;;;;;;6.60;3.33;;;;;;;;;;5013322;28;20053;-47
2022/08/04 01:57:51;;;;;;;7.72;3.53;;;;;;;;;;5013580;28;20050;-46
2022/08/04 02:00:23;;;;;;;5.88;3.22;;;;;;;;;;5013621;28;20056;-45
2022/08/04 02:02:51;;;;;;;6.80;3.47;;;;;;;;;;5013579;28;20125;-45
2022/08/04 02:05:18;;;;;;;5.25;3.45;;;;;;;;;;5020394;28;20058;-46
2022/08/04 02:08:00;;;;;;;6.35;3.20;;;;;;;;;;5032843;28;20060;-43
2022/08/04 02:10:36;;;;;;;4.68;3.28;;;;;;;;;;5032173;28;20053;-44
2022/08/04 02:13:08;;;;;;;6.68;3.20;;;;;;;;;;5035007;28;20390;-44
2022/08/04 02:15:41;;;;;;;8.38;3.35;;;;;;;;;;5054957;28;20068;-47
2022/08/04 02:18:23;;;;;;;7.22;3.45;;;;;;;;;;5057149;28;20045;-43
2022/08/04 02:20:57;;;;;;;7.93;3.70;;;;;;;;;;5056918;28;20049;-45
2022/08/04 02:23:31;;;;;;;6.57;3.38;;;;;;;;;;5056955;28;20049;-43
2022/08/04 02:26:08;;;;;;;6.90;3.75;;;;;;;;;;5016666;28;20062;-47
2022/08/04 02:28:38;;;;;;;6.63;3.45;;;;;;;;;;5016821;28;20502;-45
2022/08/04 02:31:23;;;;;;;5.45;3.88;;;;;;;;;;5017037;28;20038;-43
2022/08/04 02:34:08;;;;;;;5.18;3.55;;;;;;;;;;5016986;28;20057;-45
2022/08/04 02:36:44;;;;;;;4.57;3.10;;;;;;;;;;5017073;28;20064;-44
2022/08/04 02:39:14;;;;;;;7.97;3.70;;;;;;;;;;5020955;28;20482;-44
2022/08/04 02:41:50;;;;;;;5.68;3.45;;;;;;;;;;5036354;28;20414;-44
2022/08/04 02:44:20;;;;;;;7.32;3.80;;;;;;;;;;5036397;28;20072;-44
2022/08/04 02:46:51;;;;;;;8.27;3.90;;;;;;;;;;5020401;28;20789;-47
2022/08/04 02:49:22;;;;;;;4.70;3.78;;;;;;;;;;5016006;28;20084;-45
2022/08/04 02:51:51;;;;;;;6.53;3.85;;;;;;;;;;5016353;28;20052;-43
2022/08/04 02:54:21;;;;;;;6.93;3.92;;;;;;;;;;5016334;28;20053;-44
2022/08/04 02:56:50;;;;;;;5.10;3.63;;;;;;;;;;5016061;28;20053;-45
2022/08/04 02:59:28;;;;;;;5.10;3.55;;;;;;;;;;5016516;28;20049;-45
2022/08/04 03:01:57;;;;;;;6.18;3.58;;;;;;;;;;5016206;28;20046;-47
2022/08/04 03:04:43;;;;;;;5.05;3.38;;;;;;;;;;5016558;28;20067;-46
2022/08/04 03:07:54;;;;;;;4.95;3.63;;;;;;;;;;5015625;28;20068;-45
2022/08/04 03:10:41;;;;;;;5.20;3.10;;;;;;;;;;5015758;28;20061;-44
2022/08/04 03:13:35;;;;;;;10.50;3.30;;;;;;;;;;5016410;28;20057;-48
2022/08/04 03:16:13;;;;;;;5.72;3.45;;;;;;;;;;4962114;28;20138;-45
2022/08/04 03:18:58;;;;;;;7.20;3.55;;;;;;;;;;5016249;28;20045;-45
2022/08/04 03:21:48;;;;;;;6.15;3.83;;;;;;;;;;5015937;28;20049;-48
2022/08/04 03:24:45;;;;;;;9.00;3.78;;;;;;;;;;5021002;28;20053;-46
2022/08/04 03:27:24;;;;;;;6.85;4.10;;;;;;;;;;5035735;28;20049;-47
2022/08/04 03:30:08;;;;;;;6.47;4.00;;;;;;;;;;5035438;28;20675;-44
2022/08/04 03:32:57;;;;;;;7.38;3.97;;;;;;;;;;5045380;28;20067;-43
2022/08/04 03:35:40;;;;;;;7.18;4.40;;;;;;;;;;5042945;28;20112;-46
2022/08/04 03:38:24;;;;;;;10.23;3.80;;;;;;;;;;5033749;28;20115;-45
2022/08/04 03:41:09;;;;;;;7.38;4.65;;;;;;;;;;5034999;28;20093;-44
2022/08/04 03:44:08;;;;;;;9.73;4.95;;;;;;;;;;5034932;28;20061;-43
2022/08/04 03:47:01;;;;;;;8.02;4.80;;;;;;;;;;5029323;28;20064;-47
2022/08/04 03:49:48;;;;;;;6.57;4.00;;;;;;;;;;5035131;28;20053;-44
2022/08/04 03:55:32;;;;;;;8.43;4.50;;;;;;;;;;5034920;28;20060;-44
2022/08/04 03:58:11;;;;;;;8.85;4.93;;;;;;;;;;5034769;28;20462;-43
2022/08/04 04:00:41;;;;;;;6.85;3.95;;;;;;;;;;5035239;28;20057;-44
2022/08/04 04:03:37;;;;;;;7.20;4.30;;;;;;;;;;5035165;28;20041;-45
2022/08/04 04:06:27;;;;;;;5.90;4.07;;;;;;;;;;5034921;28;20064;-44
2022/08/04 04:09:13;;;;;;;9.90;4.50;;;;;;;;;;5034910;28;20054;-44
2022/08/04 04:11:58;;;;;;;4.55;3.85;;;;;;;;;;5034711;28;20073;-43
2022/08/04 04:14:43;;;;;;;12.38;4.43;;;;;;;;;;5043263;28;20084;-44
2022/08/04 04:17:29;;;;;;;9.73;4.35;;;;;;;;;;5054884;28;20049;-44
2022/08/04 04:20:17;;;;;;;8.88;4.35;;;;;;;;;;5054613;28;20462;-45
2022/08/04 04:23:05;;;;;;;8.10;3.97;;;;;;;;;;5054716;28;20048;-45
2022/08/04 04:25:41;;;;;;;9.30;3.70;;;;;;;;;;5021647;28;20054;-44
2022/08/04 04:28:34;;;;;;;5.97;4.15;;;;;;;;;;5023950;28;20057;-43
2022/08/04 04:31:21;;;;;;;5.68;3.97;;;;;;;;;;5033782;28;20069;-44
2022/08/04 04:34:04;;;;;;;12.52;4.50;;;;;;;;;;5014448;28;20041;-45
2022/08/04 04:36:40;;;;;;;10.57;4.20;;;;;;;;;;5013966;28;20066;-45
2022/08/04 04:39:15;;;;;;;9.57;3.78;;;;;;;;;;5013824;28;20068;-44
2022/08/04 04:41:53;;;;;;;10.68;4.18;;;;;;;;;;5014071;28;20053;-46
2022/08/04 04:44:42;;;;;;;6.20;4.05;;;;;;;;;;5019677;28;20057;-45
2022/08/04 04:47:16;;;;;;;7.68;3.70;;;;;;;;;;5015304;28;20061;-45
2022/08/04 04:49:42;;;;;;;;;;;;;;;;;;5014931;28;20050;-46
2022/08/04 04:52:20;;;;;;;7.43;4.18;;;;;;;;;;5014243;28;19932;-44
2022/08/04 04:54:55;;;;;;;26.55;5.68;;;;;;;;;;5014010;28;20148;-44
2022/08/04 04:57:24;;;;;;;11.38;4.30;;;;;;;;;;5014051;28;20460;-44
2022/08/04 04:59:55;;;;;;;11.18;4.03;;;;;;;;;;5013711;28;20065;-44
2022/08/04 05:02:45;;;;;;;9.18;4.20;;;;;;;;;;5013183;28;20050;-44
2022/08/04 05:05:30;;;;;;;8.40;4.00;;;;;;;;;;4957759;28;20058;-45
2022/08/04 05:08:15;;;;;;;6.47;4.30;;;;;;;;;;4971640;28;20061;-44
2022/08/04 05:10:53;;;;;;;8.38;4.38;;;;;;;;;;5033622;28;20064;-43
2022/08/04 05:13:31;;;;;;;12.60;4.40;;;;;;;;;;5033113;28;20053;-44
2022/08/04 05:16:05;;;;;;;9.07;4.05;;;;;;;;;;5013859;28;20129;-44
2022/08/04 05:18:37;;;;;;;6.70;4.10;;;;;;;;;;5013697;28;20045;-44
2022/08/04 05:21:31;;;;;;;10.18;3.72;;;;;;;;;;5013805;28;20398;-43
2022/08/04 05:24:08;;;;;;;6.50;3.80;;;;;;;;;;5017351;28;20710;-45
2022/08/04 05:26:47;;;;;;;8.75;4.18;;;;;;;;;;5033538;28;20050;-43
2022/08/04 05:29:41;;;;;;;12.88;4.32;;;;;;;;;;5032829;28;20057;-46
2022/08/04 05:32:19;;;;;;;8.77;3.97;;;;;;;;;;5039254;28;20481;-46
2022/08/04 05:34:49;;;;;;;34.05;6.05;;;;;;;;;;5053408;28;20057;-49
2022/08/04 05:37:18;;;;;;;6.40;3.67;;;;;;;;;;5053425;28;20053;-48
2022/08/04 05:39:48;;;;;;;10.18;3.90;;;;;;;;;;5052668;28;20064;-47
2022/08/04 05:42:17;;;;;;;9.65;4.10;;;;;;;;;;5053056;28;20469;-47
2022/08/04 05:44:45;;;;;;;5.72;4.32;;;;;;;;;;5043246;28;20061;-45
2022/08/04 05:47:15;;;;;;;5.55;4.25;;;;;;;;;;5032349;28;20379;-45
2022/08/04 05:49:44;;;;;;;10.65;4.45;;;;;;;;;;5030812;28;20080;-45
2022/08/04 05:52:14;;;;;;;8.05;4.22;;;;;;;;;;5023825;28;20052;-45
2022/08/04 05:54:43;;;;;;;10.13;4.22;;;;;;;;;;5013177;28;20145;-47
2022/08/04 05:57:12;;;;;;;7.90;4.10;;;;;;;;;;5013463;28;20057;-47
2022/08/04 05:59:57;;;;;;;11.38;4.50;;;;;;;;;;5012893;28;20054;-44
2022/08/04 06:02:27;;;;;;;5.43;4.13;;;;;;;;;;5013075;28;20439;-44
2022/08/04 06:04:56;;;;;;;5.57;3.67;;;;;;;;;;5017370;28;20092;-46
2022/08/04 06:07:25;;;;;;;8.15;4.28;;;;;;;;;;5032804;28;20068;-45
2022/08/04 06:09:55;;;;;;;7.13;4.55;;;;;;;;;;5033296;28;20104;-46
2022/08/04 06:12:28;;;;;;;5.50;4.18;;;;;;;;;;5021340;28;20138;-44
2022/08/04 06:15:03;;;;;;;6.82;3.88;;;;;;;;;;5019022;28;20081;-42
2022/08/04 06:17:31;;;;;;;6.00;4.20;;;;;;;;;;5017220;28;20049;-42
2022/08/04 06:19:59;;;;;;;7.75;4.28;;;;;;;;;;5026952;28;20053;-42
2022/08/04 06:22:28;;;;;;;33.83;5.88;;;;;;;;;;5029749;28;20551;-42
2022/08/04 06:24:58;;;;;;;10.05;4.88;;;;;;;;;;5030392;28;20076;-41
2022/08/04 06:27:25;;;;;;;7.50;4.60;;;;;;;;;;5032009;28;20328;-44
2022/08/04 06:30:06;;;;;;;12.65;4.50;;;;;;;;;;5019230;28;20470;-43
2022/08/04 06:32:55;;;;;;;8.30;3.95;;;;;;;;;;5028874;28;20190;-42
2022/08/04 06:35:30;;;;;;;9.90;4.05;;;;;;;;;;5012037;28;20085;-42
2022/08/04 06:38:08;;;;;;;9.82;3.60;;;;;;;;;;5011769;28;20065;-46
2022/08/04 06:40:42;;;;;;;13.60;5.03;;;;;;;;;;5011248;28;20129;-46
2022/08/04 06:43:10;;;;;;;10.45;4.75;;;;;;;;;;5012277;28;20050;-46
2022/08/04 06:45:45;;;;;;;12.48;4.57;;;;;;;;;;5023499;28;20049;-44
2022/08/04 06:48:19;;;;;;;11.30;4.63;;;;;;;;;;5013463;28;20140;-45
2022/08/04 06:50:56;;;;;;;5.47;3.90;;;;;;;;;;5021750;28;20053;-47
2022/08/04 06:53:27;;;;;;;6.43;3.97;;;;;;;;;;5028938;28;20461;-46
2022/08/04 06:55:56;;;;;;;5.57;4.03;;;;;;;;;;5025366;28;20061;-46
2022/08/04 06:58:32;;;;;;;10.23;4.43;;;;;;;;;;5012215;28;20132;-47
2022/08/04 07:01:09;;;;;;;8.40;4.53;;;;;;;;;;5016057;28;20057;-45
2022/08/04 07:03:46;;;;;;;7.78;4.45;;;;;;;;;;5016387;28;20046;-46
2022/08/04 07:06:17;;;;;;;8.43;4.47;;;;;;;;;;5027670;28;20132;-45
2022/08/04 07:08:46;;;;;;;7.38;4.07;;;;;;;;;;5035957;28;20091;-45
2022/08/04 07:11:17;;;;;;;6.93;3.67;;;;;;;;;;5035723;28;20457;-45
2022/08/04 07:13:45;;;;;;;9.07;4.25;;;;;;;;;;5030437;28;20045;-46
2022/08/04 07:16:14;;;;;;;12.20;4.43;;;;;;;;;;5025366;28;20053;-45
2022/08/04 07:18:55;;;;;;;4.85;4.05;;;;;;;;;;5015763;28;20064;-46
2022/08/04 07:21:24;;;;;;;6.18;4.65;;;;;;;;;;5027790;28;20080;-44
2022/08/04 07:23:54;;;;;;;7.00;4.43;;;;;;;;;;5035108;28;20049;-43
2022/08/04 07:26:26;;;;;;;8.30;4.05;;;;;;;;;;5016897;28;20050;-45
2022/08/04 07:28:58;;;;;;;8.15;4.03;;;;;;;;;;5015235;28;20056;-44
2022/08/04 07:31:26;;;;;;;6.13;4.47;;;;;;;;;;5015979;28;20050;-45
2022/08/04 07:33:55;;;;;;;8.77;3.65;;;;;;;;;;5040743;28;20053;-43
2022/08/04 07:36:23;;;;;;;5.88;3.95;;;;;;;;;;5014594;28;20050;-45
2022/08/04 07:38:50;;;;;;;5.43;4.07;;;;;;;;;;5014813;28;20129;-47
2022/08/04 07:41:19;;;;;;;8.90;4.40;;;;;;;;;;5016909;28;20076;-45
2022/08/04 07:43:47;;;;;;;5.53;4.30;;;;;;;;;;5015425;28;20470;-45
2022/08/04 07:46:15;;;;;;;5.38;4.00;;;;;;;;;;5023270;28;20080;-48
2022/08/04 07:48:44;;;;;;;5.53;4.18;;;;;;;;;;5014129;28;20053;-45
2022/08/04 07:51:27;;;;;;;5.13;4.13;;;;;;;;;;5026794;28;20127;-46
2022/08/04 07:53:55;;;;;;;6.93;3.90;;;;;;;;;;5014117;28;20143;-45
2022/08/04 07:56:26;;;;;;;78.93;9.32;;;;;;;;;;5027621;28;20061;-46
2022/08/04 07:58:55;;;;;;;9.02;4.32;;;;;;;;;;5022807;28;20054;-45
2022/08/04 08:01:31;;;;;;;7.13;4.40;;;;;;;;;;5020475;28;20050;-46
2022/08/04 08:04:00;;;;;;;20.67;5.95;;;;;;;;;;5021874;28;20037;-45
2022/08/04 08:06:29;;;;;;;8.20;4.38;;;;;;;;;;5025761;28;20096;-46
2022/08/04 08:11:42;;;;;;;60.10;8.30;;;;;;;;;;5029404;28;20079;-45
2022/08/04 08:14:14;;;;;;;37.08;6.22;;;;;;;;;;5029816;28;20053;-45
2022/08/04 08:16:50;;;;;;;4.45;3.65;;;;;;;;;;5032969;28;20053;-44
2022/08/04 08:19:19;;;;;;;10.55;4.20;;;;;;;;;;5026673;28;20053;-47
2022/08/04 08:21:55;;;;;;;5.70;3.60;;;;;;;;;;5013512;28;20138;-47
2022/08/04 08:24:21;;;;;;;7.00;3.70;;;;;;;;;;5019099;28;20064;-44
2022/08/04 08:26:48;;;;;;;6.30;3.38;;;;;;;;;;5032652;28;20076;-47
2022/08/04 08:29:15;;;;;;;6.45;4.10;;;;;;;;;;5024031;28;20064;-44
2022/08/04 08:31:45;;;;;;;4.05;3.55;;;;;;;;;;5026093;28;20055;-44
2022/08/04 08:34:12;;;;;;;7.40;4.20;;;;;;;;;;5025881;28;20045;-48
2022/08/04 08:36:47;;;;;;;5.32;3.65;;;;;;;;;;5023197;28;20140;-43
2022/08/04 08:39:19;;;;;;;10.65;4.72;;;;;;;;;;5032762;28;20100;-45
2022/08/04 08:41:50;;;;;;;;;;;;;;;;;;5027208;28;20064;-45
2022/08/04 08:44:34;;;;;;;4.88;3.30;;;;;;;;;;5020357;28;20270;-45
2022/08/04 08:47:05;;;;;;;4.05;3.28;;;;;;;;;;5029914;28;20049;-44
2022/08/04 08:50:00;;;;;;;7.82;3.90;;;;;;;;;;5032153;28;20504;-43
2022/08/04 08:52:32;;;;;;;4.85;3.42;;;;;;;;;;4998549;28;20111;-46
2022/08/04 08:55:11;;;;;;;4.95;3.10;;;;;;;;;;5026178;28;20447;-45
2022/08/04 08:57:44;;;;;;;6.28;2.90;;;;;;;;;;5033396;28;20054;-47
2022/08/04 09:00:15;;;;;;;6.82;3.38;;;;;;;;;;5031298;28;20049;-47
2022/08/04 09:03:09;;;;;;;3.37;2.90;;;;;;;;;;5023961;28;20063;-46
2022/08/04 09:05:54;;;;;;;4.65;3.05;;;;;;;;;;5030561;28;20529;-48
2022/08/04 09:08:30;;;;;;;5.50;3.60;;;;;;;;;;5029724;28;20053;-47
2022/08/04 09:11:07;;;;;;;8.38;3.60;;;;;;;;;;5023627;28;20069;-46
2022/08/04 09:13:41;;;;;;;3.55;3.10;;;;;;;;;;5029326;28;20102;-46
2022/08/04 09:16:19;;;;;;;6.28;3.15;;;;;;;;;;5019069;28;20061;-47
2022/08/04 09:18:48;;;;;;;7.32;3.38;;;;;;;;;;5024048;28;20049;-45
2022/08/04 09:21:23;;;;;;;4.68;3.70;;;;;;;;;;5033123;28;20049;-47
2022/08/04 09:23:55;;;;;;;4.70;3.65;;;;;;;;;;5031977;28;20383;-46
2022/08/04 09:26:27;;;;;;;3.42;3.08;;;;;;;;;;5030016;28;20053;-45
2022/08/04 09:28:58;;;;;;;5.53;3.22;;;;;;;;;;5020585;28;20046;-46
2022/08/04 09:31:29;;;;;;;9.27;3.55;;;;;;;;;;5021023;28;20088;-42
2022/08/04 09:34:05;;;;;;;5.72;2.95;;;;;;;;;;5016565;28;20054;-45
2022/08/04 09:36:35;;;;;;;6.10;3.72;;;;;;;;;;5025015;28;20056;-46
2022/08/04 09:39:12;;;;;;;4.25;3.20;;;;;;;;;;5031232;28;20142;-46
2022/08/04 09:41:48;;;;;;;6.70;3.40;;;;;;;;;;5033111;28;20049;-45
2022/08/04 09:44:23;;;;;;;7.32;3.35;;;;;;;;;;5032539;28;20054;-46
2022/08/04 09:46:53;;;;;;;14.18;4.18;;;;;;;;;;5024666;28;20073;-47
2022/08/04 09:49:29;;;;;;;6.07;3.50;;;;;;;;;;5019492;28;20049;-50
2022/08/04 09:52:01;;;;;;;8.40;3.88;;;;;;;;;;5017427;28;20129;-49
2022/08/04 09:54:43;;;;;;;5.22;3.28;;;;;;;;;;5017223;28;20382;-49
2022/08/04 09:57:16;;;;;;;4.00;2.92;;;;;;;;;;5017339;28;20053;-48
2022/08/04 09:59:58;;;;;;;9.27;3.42;;;;;;;;;;5015146;28;20064;-51
2022/08/04 10:02:34;;;;;;;4.25;2.72;;;;;;;;;;5012476;28;20058;-47
2022/08/04 10:05:04;;;;;;;14.38;3.22;;;;;;;;;;5011962;28;20045;-46
2022/08/04 10:07:44;;;;;;;3.85;3.00;;;;;;;;;;5020621;28;20494;-48
2022/08/04 10:10:43;;;;;;;4.43;3.28;;;;;;;;;;5026181;28;20061;-47
2022/08/04 10:13:28;;;;;;;4.70;3.25;;;;;;;;;;5012571;28;20050;-47
2022/08/04 10:16:03;;;;;;;10.50;3.80;;;;;;;;;;5012796;28;20077;-49
2022/08/04 10:18:39;;;;;;;6.05;3.30;;;;;;;;;;5013455;28;20061;-47
2022/08/04 10:21:14;;;;;;;6.50;3.60;;;;;;;;;;5014013;28;20042;-46
2022/08/04 10:23:57;;;;;;;7.05;3.22;;;;;;;;;;5021764;28;20373;-46
2022/08/04 10:26:36;;;;;;;4.22;3.47;;;;;;;;;;5015622;28;20471;-47
2022/08/04 10:29:22;;;;;;;4.07;2.80;;;;;;;;;;5026000;28;20057;-45
2022/08/04 10:31:56;;;;;;;6.07;3.50;;;;;;;;;;5035334;28;20563;-47
2022/08/04 10:37:08;;;;;;;;;;;;;;;;;;5015883;28;20064;-49
2022/08/04 10:40:35;;;;;;;6.88;3.53;;;;;;;;;;5015715;28;20246;-46
2022/08/04 10:42:51;;;;;;;12.85;4.40;;;;;;;;;;5015369;28;20061;-46
2022/08/04 10:45:37;;;;;;;3.83;3.40;;;;;;;;;;5021919;28;20058;-46
2022/08/04 10:48:20;;;;;;;4.03;3.10;;;;;;;;;;5032601;28;20269;-45
2022/08/04 10:50:55;;;;;;;4.18;3.10;;;;;;;;;;5024716;28;20077;-44
2022/08/04 10:53:34;;;;;;;60.42;7.93;;;;;;;;;;5034688;28;20087;-45
2022/08/04 10:56:04;;;;;;;5.43;3.28;;;;;;;;;;5023274;28;20529;-46
2022/08/04 10:58:37;;;;;;;4.20;3.38;;;;;;;;;;5021994;28;20471;-48
2022/08/04 11:01:13;;;;;;;5.10;3.40;;;;;;;;;;5023092;28;20084;-47
2022/08/04 11:03:49;;;;;;;10.07;3.95;;;;;;;;;;5018446;28;20049;-47
2022/08/04 11:06:19;;;;;;;6.63;3.72;;;;;;;;;;5020453;28;20050;-45
2022/08/04 11:08:49;;;;;;;8.70;3.10;;;;;;;;;;5035292;28;20049;-46
2022/08/04 11:11:19;;;;;;;10.80;3.38;;;;;;;;;;5032713;28;20059;-43
2022/08/04 11:13:48;;;;;;;5.38;3.28;;;;;;;;;;5020018;28;20403;-46
2022/08/04 11:16:21;;;;;;;3.90;3.15;;;;;;;;;;5017770;28;20426;-45
2022/08/04 11:18:49;;;;;;;7.05;3.78;;;;;;;;;;5034546;28;20046;-46
2022/08/04 11:21:27;;;;;;;6.38;3.95;;;;;;;;;;5028346;28;20053;-45
2022/08/04 11:24:05;;;;;;;6.18;3.88;;;;;;;;;;5026246;28;20045;-41
2022/08/04 11:26:38;;;;;;;7.18;3.80;;;;;;;;;;5022796;28;20061;-42
2022/08/04 11:29:09;;;;;;;6.47;3.58;;;;;;;;;;5032806;28;20427;-44
2022/08/04 11:31:46;;;;;;;19.90;4.18;;;;;;;;;;5027855;28;20746;-45
2022/08/04 11:34:22;;;;;;;4.85;3.75;;;;;;;;;;5024393;28;20046;-45
2022/08/04 11:36:54;;;;;;;11.45;4.43;;;;;;;;;;5034513;28;20055;-44
2022/08/04 11:39:28;;;;;;;5.88;3.97;;;;;;;;;;5034369;28;20379;-45
2022/08/04 11:41:59;;;;;;;;;;;;;;;;;;5034723;28;20647;-44
2022/08/04 11:44:30;;;;;;;4.13;3.63;;;;;;;;;;5016911;28;20331;-48
2022/08/04 11:47:02;;;;;;;5.60;3.88;;;;;;;;;;5026456;28;20104;-45
2022/08/04 11:49:41;;;;;;;4.65;4.18;;;;;;;;;;5014977;28;20054;-43
2022/08/04 11:52:10;;;;;;;8.80;3.80;;;;;;;;;;5029888;28;20798;-44
2022/08/04 11:54:46;;;;;;;5.13;3.70;;;;;;;;;;5030369;28;20053;-43
2022/08/04 11:57:14;;;;;;;21.05;4.78;;;;;;;;;;5021260;28;20060;-45
2022/08/04 11:59:51;;;;;;;6.65;3.80;;;;;;;;;;5027537;28;20056;-43
2022/08/04 12:02:38;;;;;;;11.35;4.07;;;;;;;;;;5024552;28;20057;-44
2022/08/04 12:05:19;;;;;;;33.17;6.28;;;;;;;;;;5012762;28;20056;-45
2022/08/04 12:07:53;;;;;;;9.25;4.00;;;;;;;;;;5033616;28;20053;-45
2022/08/04 12:10:28;;;;;;;7.95;4.03;;;;;;;;;;5020340;28;20049;-44
2022/08/04 12:13:04;;;;;;;4.03;3.60;;;;;;;;;;5030730;28;20054;-43
2022/08/04 12:15:36;;;;;;;5.88;3.50;;;;;;;;;;5025337;28;20155;-43
2022/08/04 12:18:08;;;;;;;4.78;3.70;;;;;;;;;;5034187;28;20053;-43
2022/08/04 12:20:50;;;;;;;8.07;4.30;;;;;;;;;;5034071;28;20115;-44
2022/08/04 12:23:27;;;;;;;4.85;3.90;;;;;;;;;;5020064;28;20045;-43
2022/08/04 12:26:01;;;;;;;6.38;3.88;;;;;;;;;;5024511;28;20045;-45
2022/08/04 12:28:34;;;;;;;70.68;8.45;;;;;;;;;;5022252;28;20053;-46
2022/08/04 12:31:04;;;;;;;8.93;4.30;;;;;;;;;;5029639;28;20049;-45
2022/08/04 12:33:35;;;;;;;18.65;5.45;;;;;;;;;;5026385;28;20063;-46
2022/08/04 12:36:15;;;;;;;6.20;3.95;;;;;;;;;;5032130;28;20069;-45
2022/08/04 12:38:48;;;;;;;8.30;3.75;;;;;;;;;;5027836;28;20057;-45
2022/08/04 12:41:18;;;;;;;6.97;3.83;;;;;;;;;;5024862;28;20140;-43
2022/08/04 12:43:49;;;;;;;25.08;5.10;;;;;;;;;;5017396;28;20058;-43
2022/08/04 12:46:20;;;;;;;6.22;4.57;;;;;;;;;;5025356;28;20041;-43
2022/08/04 12:48:51;;;;;;;4.63;4.13;;;;;;;;;;5033485;28;20049;-44
2022/08/04 12:51:22;;;;;;;8.80;3.85;;;;;;;;;;5018416;28;20065;-42
2022/08/04 12:53:51;;;;;;;6.85;4.10;;;;;;;;;;5013407;28;20063;-43
2022/08/04 12:56:25;;;;;;;8.75;4.20;;;;;;;;;;5013608;28;20050;-44
2022/08/04 12:58:55;;;;;;;13.80;4.22;;;;;;;;;;5025853;28;20053;-42
2022/08/04 13:01:26;;;;;;;25.52;5.80;;;;;;;;;;5022161;28;20105;-43
2022/08/04 13:03:53;;;;;;;6.68;3.80;;;;;;;;;;5014208;28;20085;-41
2022/08/04 13:06:24;;;;;;;15.38;5.03;;;;;;;;;;5016112;28;20546;-42
2022/08/04 13:08:54;;;;;;;6.78;4.45;;;;;;;;;;5013158;28;20050;-43
2022/08/04 13:11:21;;;;;;;5.70;4.32;;;;;;;;;;5017373;28;20104;-43
2022/08/04 13:14:00;;;;;;;5.00;4.32;;;;;;;;;;5020118;28;20056;-42
2022/08/04 13:16:35;;;;;;;5.55;4.50;;;;;;;;;;5019449;28;20049;-41
2022/08/04 13:19:06;;;;;;;6.97;4.07;;;;;;;;;;5013619;28;20042;-42
2022/08/04 13:21:34;;;;;;;5.82;4.53;;;;;;;;;;5025551;28;20582;-42
2022/08/04 13:24:08;;;;;;;11.45;4.80;;;;;;;;;;5033140;28;20067;-43
2022/08/04 13:26:38;;;;;;;4.50;3.97;;;;;;;;;;5016432;28;20053;-43
2022/08/04 13:29:09;;;;;;;5.00;4.32;;;;;;;;;;5033118;28;20490;-43
2022/08/04 13:31:38;;;;;;;4.50;3.97;;;;;;;;;;5012547;28;20139;-41
2022/08/04 13:34:16;;;;;;;8.77;4.60;;;;;;;;;;5013590;28;20064;-40
2022/08/04 13:36:52;;;;;;;7.28;4.38;;;;;;;;;;5031792;28;20057;-38
2022/08/04 13:39:25;;;;;;;5.78;4.15;;;;;;;;;;5032838;28;20685;-36
2022/08/04 13:42:01;;;;;;;9.73;4.57;;;;;;;;;;5032656;28;20156;-38
2022/08/04 13:44:28;;;;;;;13.13;4.32;;;;;;;;;;5016496;28;20061;-38
2022/08/04 13:47:02;;;;;;;10.75;4.28;;;;;;;;;;5029634;28;20061;-37
2022/08/04 13:49:32;;;;;;;9.30;5.18;;;;;;;;;;5026902;28;20076;-37
2022/08/04 13:52:01;;;;;;;7.85;4.55;;;;;;;;;;5020524;28;20459;-38
2022/08/04 13:54:43;;;;;;;12.50;4.93;;;;;;;;;;5029237;28;20049;-40
2022/08/04 13:57:13;;;;;;;10.95;5.10;;;;;;;;;;5027603;28;20499;-41
2022/08/04 13:59:44;;;;;;;5.93;4.32;;;;;;;;;;5022406;28;20078;-40
2022/08/04 14:02:23;;;;;;;6.43;4.95;;;;;;;;;;5024688;28;20053;-41
2022/08/04 14:04:56;;;;;;;6.75;4.57;;;;;;;;;;5022247;28;20129;-39
2022/08/04 14:07:25;;;;;;;6.75;4.85;;;;;;;;;;5025282;28;20050;-42
2022/08/04 14:09:53;;;;;;;7.95;4.75;;;;;;;;;;5027804;28;20107;-38
2022/08/04 14:12:20;;;;;;;10.13;5.30;;;;;;;;;;5036580;28;20550;-38
2022/08/04 14:14:48;;;;;;;7.88;4.63;;;;;;;;;;5026137;28;20056;-38
2022/08/04 14:17:16;;;;;;;9.07;4.60;;;;;;;;;;5021282;28;20074;-42
2022/08/04 14:19:53;;;;;;;7.63;4.30;;;;;;;;;;5027876;28;20057;-42
2022/08/04 14:22:34;;;;;;;7.40;4.45;;;;;;;;;;5037232;28;20049;-40
2022/08/04 14:25:04;;;;;;;8.73;5.15;;;;;;;;;;5034863;28;20553;-40
2022/08/04 14:27:31;;;;;;;5.53;4.18;;;;;;;;;;5026780;28;20442;-40
2022/08/04 14:29:57;;;;;;;7.78;4.97;;;;;;;;;;5023517;28;20137;-41
2022/08/04 14:32:24;;;;;;;6.00;4.78;;;;;;;;;;5029788;28;20057;-39
2022/08/04 14:34:51;;;;;;;6.38;4.75;;;;;;;;;;5034993;28;20140;-41
2022/08/04 14:37:21;;;;;;;8.07;4.40;;;;;;;;;;5036311;28;20045;-39
2022/08/04 14:39:49;;;;;;;11.70;4.28;;;;;;;;;;5025341;28;20053;-40
2022/08/04 14:42:39;;;;;;;7.07;5.07;;;;;;;;;;5023150;28;20052;-40
2022/08/04 14:45:08;;;;;;;5.38;4.40;;;;;;;;;;5034972;28;20518;-39
2022/08/04 14:47:47;;;;;;;5.53;4.60;;;;;;;;;;5026468;28;20436;-41
2022/08/04 14:50:17;;;;;;;7.60;5.07;;;;;;;;;;5034448;28;20065;-41
2022/08/04 14:52:44;;;;;;;7.47;4.97;;;;;;;;;;5025333;28;20045;-40
2022/08/04 14:55:19;;;;;;;6.43;4.93;;;;;;;;;;5020406;28;20052;-40
2022/08/04 14:57:50;;;;;;;7.93;4.70;;;;;;;;;;5015080;28;20132;-42
2022/08/04 15:00:29;;;;;;;8.60;4.32;;;;;;;;;;5016030;28;20379;-40
2022/08/04 15:03:01;;;;;;;5.03;4.40;;;;;;;;;;5018034;28;20049;-41
2022/08/04 15:05:32;;;;;;;35.72;7.05;;;;;;;;;;5024394;28;20042;-41
2022/08/04 15:08:02;;;;;;;10.95;5.10;;;;;;;;;;5017899;28;20054;-41
2022/08/04 15:10:32;;;;;;;7.43;4.68;;;;;;;;;;5016026;28;20057;-40
2022/08/04 15:13:04;;;;;;;8.20;5.07;;;;;;;;;;5016055;28;20054;-40
2022/08/04 15:15:33;;;;;;;7.25;5.13;;;;;;;;;;5050695;28;20067;-40
2022/08/04 15:18:02;;;;;;;7.93;5.10;;;;;;;;;;5056085;28;20048;-41
2022/08/04 15:20:29;;;;;;;35.67;7.88;;;;;;;;;;5043225;28;20088;-41
2022/08/04 15:22:59;;;;;;;7.90;4.93;;;;;;;;;;5035567;28;20049;-40
2022/08/04 15:25:29;;;;;;;4.78;4.18;;;;;;;;;;5024492;28;20053;-41
2022/08/04 15:27:59;;;;;;;7.50;5.00;;;;;;;;;;5029777;28;20061;-41
2022/08/04 15:30:30;;;;;;;19.52;6.22;;;;;;;;;;5035984;28;20057;-40
2022/08/04 15:32:59;;;;;;;6.35;4.90;;;;;;;;;;5025595;28;20045;-40
2022/08/04 15:35:35;;;;;;;7.95;4.95;;;;;;;;;;5015764;28;20076;-40
2022/08/04 15:38:05;;;;;;;7.90;4.90;;;;;;;;;;5020839;28;20049;-40